Time;durP1;ratioP1;P1;durP2;ratioP2;P2;SDS_P1;SDS_P2;PMS_P1;PMS_P2;Temp;Humidity;BMP_temperature;BMP_pressure;BME280_temperature;BME280_humidity;BME280_pressure;Samples;Min_cycle;Max_cycle;Signal;HPM_P1;HPM_P2
2022/10/23 00:00:02;;;;;;;28.95;18.38;;;;;;;11.08;100.00;101137.94;5034864;28;20393;-60
2022/10/23 00:02:27;;;;;;;34.08;19.42;;;;;;;11.07;100.00;101130.94;5034826;28;20465;-56
2022/10/23 00:04:52;;;;;;;26.63;19.27;;;;;;;11.06;100.00;101118.66;5034920;28;20043;-57
2022/10/23 00:07:18;;;;;;;30.38;18.42;;;;;;;11.34;100.00;101181.97;5034712;28;20040;-55
2022/10/23 00:09:43;;;;;;;29.30;18.70;;;;;;;11.31;100.00;101184.69;5034550;28;20111;-57
2022/10/23 00:12:08;;;;;;;22.73;18.42;;;;;;;11.02;100.00;101138.13;5034815;28;20037;-57
2022/10/23 00:14:34;;;;;;;29.35;18.60;;;;;;;11.26;100.00;101176.94;5034545;28;20128;-52
2022/10/23 00:16:59;;;;;;;24.50;18.48;;;;;;;11.28;100.00;101182.13;5034610;28;20034;-59
2022/10/23 00:19:24;;;;;;;28.75;19.63;;;;;;;11.32;100.00;101188.19;5034568;28;20064;-56
2022/10/23 00:21:50;;;;;;;26.42;19.20;;;;;;;11.32;100.00;101182.91;5034444;28;20084;-57
2022/10/23 00:24:15;;;;;;;25.17;18.70;;;;;;;11.28;100.00;101176.88;5034567;28;20456;-56
2022/10/23 00:26:41;;;;;;;26.50;17.98;;;;;;;11.28;100.00;101174.22;5034717;28;20029;-55
2022/10/23 00:29:07;;;;;;;23.48;18.17;;;;;;;11.00;100.00;101123.28;5034624;28;20033;-56
2022/10/23 00:31:32;;;;;;;25.58;18.48;;;;;;;11.35;100.00;101183.69;5034455;28;20045;-54
2022/10/23 00:33:57;;;;;;;27.63;19.17;;;;;;;11.39;100.00;101177.41;5034382;28;20060;-55
2022/10/23 00:36:23;;;;;;;27.02;19.40;;;;;;;11.33;100.00;101182.84;5034042;28;20526;-57
2022/10/23 00:38:49;;;;;;;23.80;18.05;;;;;;;11.26;100.00;101169.03;5033784;28;20030;-51
2022/10/23 00:41:27;;;;;;;26.55;19.73;;;;;;;10.94;100.00;101120.81;5033409;28;20083;-58
2022/10/23 00:44:00;;;;;;;33.38;18.00;;;;;;;11.30;100.00;101182.94;5034000;28;20049;-56
2022/10/23 00:46:26;;;;;;;26.77;18.13;;;;;;;10.95;100.00;101122.53;5033859;28;20038;-54
2022/10/23 00:48:51;;;;;;;28.25;18.20;;;;;;;11.00;100.00;101124.16;5032793;28;20381;-53
2022/10/23 00:51:17;;;;;;;25.20;19.42;;;;;;;11.27;100.00;101173.38;5033224;28;20405;-55
2022/10/23 00:53:43;;;;;;;31.45;19.20;;;;;;;11.30;100.00;101169.78;5032645;28;20029;-54
2022/10/23 00:56:08;;;;;;;28.92;19.13;;;;;;;11.37;100.00;101173.97;5033861;28;20063;-57
2022/10/23 00:58:33;;;;;;;27.10;18.40;;;;;;;11.38;100.00;101174.84;5049150;28;20037;-57
2022/10/23 01:00:59;;;;;;;25.42;18.58;;;;;;;11.04;100.00;101103.81;5033896;28;20034;-57
2022/10/23 01:03:26;;;;;;;28.45;20.13;;;;;;;11.40;100.00;101157.19;5033684;28;20118;-56
2022/10/23 01:06:06;;;;;;;28.65;19.17;;;;;;;11.47;100.00;101162.22;5033766;28;20400;-58
2022/10/23 01:09:07;;;;;;;27.45;19.55;;;;;;;11.46;100.00;101157.00;5032610;28;20029;-55
2022/10/23 01:11:57;;;;;;;36.22;20.25;;;;;;;11.54;100.00;101158.50;5022732;28;20527;-57
2022/10/23 01:14:31;;;;;;;24.48;18.17;;;;;;;11.57;100.00;101157.53;5033542;28;20389;-57
2022/10/23 01:17:05;;;;;;;27.55;19.33;;;;;;;11.58;100.00;101164.53;5049340;28;20083;-56
2022/10/23 01:19:47;;;;;;;29.30;20.10;;;;;;;11.56;100.00;101150.50;5048828;28;20067;-57
2022/10/23 01:22:53;;;;;;;24.20;19.95;;;;;;;11.56;100.00;101154.03;5032318;28;20488;-58
2022/10/23 01:25:29;;;;;;;28.45;19.05;;;;;;;11.37;100.00;101123.88;5032439;28;20053;-55
2022/10/23 01:28:02;;;;;;;32.35;19.83;;;;;;;11.25;100.00;101109.31;5032241;28;20061;-57
2022/10/23 01:30:28;;;;;;;28.55;20.15;;;;;;;11.12;100.00;101088.66;5032019;28;20029;-57
2022/10/23 01:33:05;;;;;;;28.80;19.42;;;;;;;11.43;100.00;101150.06;5032201;28;20128;-58
2022/10/23 01:35:34;;;;;;;31.65;20.73;;;;;;;11.11;100.00;101090.44;5048818;28;20086;-52
2022/10/23 01:38:08;;;;;;;36.80;20.13;;;;;;;11.27;100.00;101111.88;5032293;28;20121;-50
2022/10/23 01:40:42;;;;;;;32.38;20.55;;;;;;;11.51;100.00;101144.53;5033318;28;20044;-57
2022/10/23 01:43:12;;;;;;;33.00;21.15;;;;;;;11.19;100.00;101074.38;5031858;28;20037;-57
2022/10/23 01:45:42;;;;;;;28.10;20.48;;;;;;;11.24;100.00;101078.59;5031805;28;20037;-54
2022/10/23 01:48:11;;;;;;;27.40;20.65;;;;;;;11.19;100.00;101053.31;5015352;28;20072;-56
2022/10/23 01:50:38;;;;;;;31.58;20.42;;;;;;;11.59;100.00;101121.41;5031622;28;20038;-53
2022/10/23 01:53:03;;;;;;;31.52;19.60;;;;;;;11.53;100.00;101111.94;5031911;28;20388;-57
2022/10/23 01:55:30;;;;;;;33.75;20.38;;;;;;;11.50;100.00;101105.91;5031990;28;20041;-53
2022/10/23 01:57:56;;;;;;;26.27;19.55;;;;;;;11.40;100.00;101088.66;5031622;28;20175;-56
2022/10/23 02:00:21;;;;;;;25.92;18.35;;;;;;;11.18;100.00;101059.47;5031769;28;20128;-59
2022/10/23 02:02:48;;;;;;;29.08;18.70;;;;;;;11.37;100.00;101105.44;5031836;28;20423;-55
2022/10/23 02:05:17;;;;;;;28.23;19.23;;;;;;;11.46;100.00;101110.44;5031572;28;20083;-58
2022/10/23 02:07:43;;;;;;;28.63;19.23;;;;;;;11.42;100.00;101111.41;5031228;28;20473;-53
2022/10/23 02:10:09;;;;;;;32.10;18.70;;;;;;;11.38;100.00;101125.63;5047936;28;20121;-53
2022/10/23 02:12:53;;;;;;;28.52;19.65;;;;;;;11.33;100.00;101116.97;5048020;28;20496;-55
2022/10/23 02:15:33;;;;;;;27.00;18.63;;;;;;;10.96;100.00;101063.69;5032758;28;20033;-56
2022/10/23 02:18:08;;;;;;;31.50;19.40;;;;;;;10.88;100.00;101049.91;5032575;28;20104;-54
2022/10/23 02:21:06;;;;;;;34.25;20.00;;;;;;;11.19;100.00;101106.00;5014750;28;20040;-56
2022/10/23 02:23:35;;;;;;;26.75;19.63;;;;;;;11.15;100.00;101110.50;5030555;28;20049;-55
2022/10/23 02:26:39;;;;;;;27.15;19.67;;;;;;;11.19;100.00;101103.38;5032622;28;20057;-58
2022/10/23 02:29:15;;;;;;;26.45;18.92;;;;;;;10.64;100.00;101004.09;4970891;28;20039;-57
2022/10/23 02:31:40;;;;;;;36.25;20.58;;;;;;;10.85;100.00;101044.72;4970988;28;20051;-53
2022/10/23 02:34:05;;;;;;;36.42;19.88;;;;;;;10.77;100.00;101034.41;5003672;28;20045;-58
2022/10/23 02:36:31;;;;;;;31.30;20.27;;;;;;;11.07;100.00;101091.44;5032129;28;20045;-56
2022/10/23 02:38:56;;;;;;;31.65;20.52;;;;;;;10.97;100.00;101068.06;5030955;28;20034;-56
2022/10/23 02:41:37;;;;;;;31.83;19.80;;;;;;;11.09;100.00;101100.13;5030846;28;20491;-53
2022/10/23 02:44:09;;;;;;;29.25;19.40;;;;;;;11.09;100.00;101097.50;5032114;28;20033;-57
2022/10/23 02:47:11;;;;;;;29.65;20.15;;;;;;;11.07;100.00;101082.66;5032116;28;20033;-54
2022/10/23 02:49:45;;;;;;;37.30;20.42;;;;;;;11.03;100.00;101083.69;5031950;28;20064;-55
2022/10/23 02:52:15;;;;;;;28.17;19.73;;;;;;;11.06;100.00;101086.22;5031758;28;20033;-59
2022/10/23 02:55:02;;;;;;;28.65;19.73;;;;;;;10.94;100.00;101049.72;5031198;28;20037;-57
2022/10/23 02:57:34;;;;;;;30.52;19.63;;;;;;;11.05;100.00;101056.38;5030818;28;20503;-59
2022/10/23 03:00:13;;;;;;;28.77;20.10;;;;;;;10.68;100.00;100982.06;5030974;28;20033;-57
2022/10/23 03:02:51;;;;;;;28.77;19.67;;;;;;;10.70;100.00;100969.69;5030931;28;20059;-53
2022/10/23 03:05:19;;;;;;;24.38;18.95;;;;;;;11.17;100.00;101036.69;5030753;28;20037;-54
2022/10/23 03:07:45;;;;;;;26.70;18.92;;;;;;;11.17;100.00;101034.06;5032023;28;20033;-55
2022/10/23 03:10:11;;;;;;;25.77;19.02;;;;;;;11.19;100.00;101029.59;5047705;28;20041;-54
2022/10/23 03:12:37;;;;;;;24.88;18.55;;;;;;;10.95;100.00;100975.03;5031861;28;20029;-58
2022/10/23 03:15:04;;;;;;;28.95;18.90;;;;;;;10.97;100.00;100979.38;5034093;28;20030;-56
2022/10/23 03:17:29;;;;;;;24.30;17.63;;;;;;;11.32;100.00;101036.22;5035763;28;20044;-59
2022/10/23 03:19:54;;;;;;;23.60;16.92;;;;;;;11.35;100.00;101032.59;5036198;28;20042;-51
2022/10/23 03:22:19;;;;;;;32.25;18.42;;;;;;;11.38;100.00;101028.09;5035786;28;20124;-56
2022/10/23 03:24:45;;;;;;;28.52;17.65;;;;;;;11.41;100.00;101035.03;5051111;28;20445;-58
2022/10/23 03:27:10;;;;;;;23.17;17.80;;;;;;;11.39;100.00;101034.22;5035610;28;20080;-52
2022/10/23 03:29:36;;;;;;;25.20;18.08;;;;;;;11.40;100.00;101034.19;5035661;28;20068;-56
2022/10/23 03:32:02;;;;;;;33.08;17.52;;;;;;;11.26;100.00;100991.59;5034297;28;20045;-55
2022/10/23 03:34:27;;;;;;;29.08;16.75;;;;;;;11.34;100.00;101015.94;5018136;28;20057;-57
2022/10/23 03:36:53;;;;;;;27.08;16.15;;;;;;;11.42;100.00;101031.47;5035642;28;20091;-56
2022/10/23 03:39:18;;;;;;;23.95;15.82;;;;;;;11.41;100.00;101016.59;5035522;28;20120;-57
2022/10/23 03:41:43;;;;;;;19.67;15.68;;;;;;;11.38;100.00;100998.25;5035376;28;20025;-52
2022/10/23 03:44:08;;;;;;;24.80;15.73;;;;;;;11.36;100.00;100990.38;5035341;28;20109;-57
2022/10/23 03:46:34;;;;;;;24.13;16.30;;;;;;;11.36;100.00;100987.75;5035361;28;20034;-57
2022/10/23 03:48:59;;;;;;;20.98;17.13;;;;;;;11.37;100.00;100988.59;5034256;28;20044;-57
2022/10/23 03:51:25;;;;;;;22.80;14.85;;;;;;;11.28;100.00;100969.56;5035318;28;20030;-53
2022/10/23 03:53:50;;;;;;;26.63;15.48;;;;;;;11.34;100.00;100979.03;5035276;28;20557;-58
2022/10/23 03:56:16;;;;;;;20.95;14.40;;;;;;;11.32;100.00;100972.09;5035097;28;20037;-53
2022/10/23 03:58:41;;;;;;;26.83;15.45;;;;;;;11.30;100.00;100966.84;5035286;28;20037;-57
2022/10/23 04:01:07;;;;;;;17.67;13.85;;;;;;;11.01;100.00;100912.50;5031202;28;20404;-56
2022/10/23 04:03:32;;;;;;;20.05;14.30;;;;;;;11.27;100.00;100959.06;5033051;28;20128;-56
2022/10/23 04:05:57;;;;;;;18.50;14.45;;;;;;;10.99;100.00;100905.56;5034194;28;20030;-59
2022/10/23 04:08:23;;;;;;;22.08;15.23;;;;;;;11.24;100.00;100956.53;5034408;28;20044;-61
2022/10/23 04:10:48;;;;;;;23.60;13.82;;;;;;;11.31;100.00;100960.69;5034134;28;20521;-57
2022/10/23 04:13:13;;;;;;;22.60;14.68;;;;;;;11.34;100.00;100962.34;5033030;28;20481;-60
2022/10/23 04:15:39;;;;;;;24.73;13.90;;;;;;;11.04;100.00;100911.53;5034013;28;20076;-59
2022/10/23 04:18:04;;;;;;;21.50;12.98;;;;;;;11.22;100.00;100942.53;5035025;28;20033;-60
2022/10/23 04:20:30;;;;;;;22.67;13.35;;;;;;;10.98;100.00;100896.78;5049711;28;20033;-59
2022/10/23 04:22:56;;;;;;;18.27;14.10;;;;;;;11.36;100.00;100957.88;5034907;28;20077;-55
2022/10/23 04:25:21;;;;;;;22.08;14.82;;;;;;;11.39;100.00;100947.25;5033836;28;20477;-55
2022/10/23 04:27:47;;;;;;;21.67;13.73;;;;;;;11.45;100.00;100944.41;5034598;28;20036;-56
2022/10/23 04:30:12;;;;;;;20.02;13.90;;;;;;;11.49;100.00;100946.03;5034539;28;20033;-57
2022/10/23 04:32:38;;;;;;;19.90;13.23;;;;;;;11.21;100.00;100875.81;5034380;28;20068;-52
2022/10/23 04:35:03;;;;;;;23.40;14.25;;;;;;;11.51;100.00;100909.91;5034731;28;20487;-59
2022/10/23 04:37:29;;;;;;;21.83;14.38;;;;;;;11.60;100.00;100931.56;5034381;28;20698;-58
2022/10/23 04:39:54;;;;;;;20.00;13.50;;;;;;;11.22;100.00;100868.78;5034420;28;20469;-55
2022/10/23 04:42:19;;;;;;;19.13;14.15;;;;;;;11.29;100.00;100886.09;5033382;28;20374;-58
2022/10/23 04:44:44;;;;;;;19.30;12.48;;;;;;;11.55;100.00;100928.22;5034194;28;20038;-53
2022/10/23 04:47:10;;;;;;;22.13;12.77;;;;;;;11.16;100.00;100872.47;5034065;28;20033;-56
2022/10/23 04:49:35;;;;;;;21.40;12.57;;;;;;;11.13;100.00;100871.72;5034273;28;20049;-58
2022/10/23 04:52:01;;;;;;;22.85;13.18;;;;;;;10.98;100.00;100859.06;5034079;28;20538;-56
2022/10/23 04:54:26;;;;;;;19.80;12.50;;;;;;;11.35;100.00;100920.16;5033853;28;20041;-57
2022/10/23 04:56:51;;;;;;;20.95;11.93;;;;;;;11.43;100.00;100940.97;5034039;28;20473;-55
2022/10/23 04:59:17;;;;;;;20.95;13.23;;;;;;;11.25;100.00;100905.56;5034277;28;20041;-55
2022/10/23 05:01:42;;;;;;;20.30;11.77;;;;;;;11.11;100.00;100881.44;5034160;28;20527;-60
2022/10/23 05:04:07;;;;;;;22.15;13.10;;;;;;;11.49;100.00;100936.34;5049201;28;20073;-54
2022/10/23 05:06:33;;;;;;;20.42;12.68;;;;;;;11.52;100.00;100923.06;5033934;28;20412;-56
2022/10/23 05:08:58;;;;;;;18.13;13.18;;;;;;;11.42;100.00;100891.78;5033833;28;20083;-59
2022/10/23 05:11:23;;;;;;;28.20;14.05;;;;;;;11.57;100.00;100913.22;5033698;28;20042;-56
2022/10/23 05:13:49;;;;;;;20.85;13.02;;;;;;;11.55;100.00;100904.50;5033615;28;20244;-54
2022/10/23 05:16:30;;;;;;;22.17;12.73;;;;;;;11.53;100.00;100894.94;5033779;28;20477;-57
2022/10/23 05:18:56;;;;;;;15.63;12.52;;;;;;;11.64;100.00;100913.84;5033756;28;20026;-53
2022/10/23 05:21:25;;;;;;;20.42;12.20;;;;;;;11.64;100.00;100908.59;5033496;28;20034;-59
2022/10/23 05:23:51;;;;;;;22.17;12.27;;;;;;;11.40;100.00;100860.22;5048605;28;20033;-56
2022/10/23 05:26:16;;;;;;;22.60;12.57;;;;;;;11.42;100.00;100868.06;5048875;28;20038;-53
2022/10/23 05:28:41;;;;;;;23.23;12.75;;;;;;;11.75;100.00;100909.97;5033102;28;20029;-58
2022/10/23 05:31:07;;;;;;;20.17;11.93;;;;;;;11.74;100.00;100902.94;5033252;28;20447;-57
2022/10/23 05:33:34;;;;;;;23.65;13.60;;;;;;;11.43;100.00;100846.94;5033409;28;20063;-53
2022/10/23 05:35:59;;;;;;;19.63;12.20;;;;;;;11.49;100.00;100840.59;5048518;28;20037;-59
2022/10/23 05:38:26;;;;;;;22.00;12.50;;;;;;;11.82;100.00;100889.50;5033148;28;20131;-58
2022/10/23 05:40:52;;;;;;;18.50;12.40;;;;;;;11.68;100.00;100873.25;5033211;28;20040;-56
2022/10/23 05:43:18;;;;;;;19.98;11.80;;;;;;;11.92;100.00;100911.97;5032945;28;20037;-53
2022/10/23 05:45:43;;;;;;;18.90;12.05;;;;;;;11.91;100.00;100912.03;5033234;28;20029;-57
2022/10/23 05:48:08;;;;;;;19.23;12.57;;;;;;;11.92;100.00;100905.84;5031804;28;20041;-56
2022/10/23 05:50:37;;;;;;;20.27;12.32;;;;;;;11.62;100.00;100847.13;5048627;28;20036;-53
2022/10/23 05:53:02;;;;;;;19.13;13.52;;;;;;;11.91;100.00;100899.69;5033088;28;20113;-60
2022/10/23 05:55:28;;;;;;;19.90;13.38;;;;;;;11.91;100.00;100907.59;5032844;28;20471;-57
2022/10/23 05:57:53;;;;;;;18.25;13.68;;;;;;;11.92;100.00;100896.16;5032703;28;20385;-56
2022/10/23 06:00:18;;;;;;;19.98;14.38;;;;;;;11.84;100.00;100874.47;5033038;28;20116;-61
2022/10/23 06:02:44;;;;;;;23.92;15.90;;;;;;;11.89;100.00;100880.44;5032904;28;20041;-58
2022/10/23 06:05:09;;;;;;;19.67;14.05;;;;;;;11.88;100.00;100886.63;5032818;28;20037;-55
2022/10/23 06:07:35;;;;;;;24.20;13.77;;;;;;;11.88;100.00;100880.50;5033223;28;20073;-58
2022/10/23 06:10:00;;;;;;;21.13;15.13;;;;;;;11.55;100.00;100825.41;5032735;28;20388;-56
2022/10/23 06:12:26;;;;;;;22.13;13.80;;;;;;;11.81;100.00;100872.81;5032689;28;20045;-51
2022/10/23 06:14:51;;;;;;;18.58;14.23;;;;;;;11.77;100.00;100862.41;5048143;28;20064;-55
2022/10/23 06:17:16;;;;;;;21.85;14.25;;;;;;;11.45;100.00;100805.56;5032854;28;20087;-55
2022/10/23 06:19:43;;;;;;;17.98;13.52;;;;;;;11.45;100.00;100813.47;5047860;28;20035;-56
2022/10/23 06:22:09;;;;;;;20.48;13.50;;;;;;;11.64;100.00;100843.53;5047775;28;20041;-56
2022/10/23 06:24:34;;;;;;;16.42;14.25;;;;;;;11.52;100.00;100817.63;5032490;28;20042;-60
2022/10/23 06:26:59;;;;;;;20.83;14.15;;;;;;;11.80;100.00;100862.31;5032211;28;20041;-52
2022/10/23 06:29:25;;;;;;;25.95;14.55;;;;;;;11.77;100.00;100857.16;5032769;28;20041;-56
2022/10/23 06:31:50;;;;;;;22.73;15.18;;;;;;;11.77;100.00;100857.16;5030827;28;20076;-56
2022/10/23 06:34:15;;;;;;;19.80;13.45;;;;;;;11.78;100.00;100846.56;5032437;28;20392;-59
2022/10/23 06:36:41;;;;;;;22.27;14.38;;;;;;;11.43;100.00;100769.66;5032412;28;20033;-53
2022/10/23 06:39:07;;;;;;;20.70;13.40;;;;;;;11.50;100.00;100782.53;5032410;28;20381;-54
2022/10/23 06:41:32;;;;;;;18.70;13.63;;;;;;;11.47;100.00;100776.53;5047469;28;20488;-55
2022/10/23 06:43:57;;;;;;;22.48;13.73;;;;;;;11.81;100.00;100835.03;5030991;28;20029;-55
2022/10/23 06:46:25;;;;;;;17.25;12.18;;;;;;;11.47;100.00;100785.28;5032214;28;20034;-55
2022/10/23 06:48:51;;;;;;;20.92;13.80;;;;;;;11.85;100.00;100833.97;5031882;28;20037;-53
2022/10/23 06:51:16;;;;;;;15.55;13.38;;;;;;;11.57;100.00;100775.25;5032050;28;20044;-54
2022/10/23 06:53:43;;;;;;;18.48;13.68;;;;;;;11.84;100.00;100813.81;5032195;28;20075;-59
2022/10/23 06:56:09;;;;;;;22.48;13.68;;;;;;;11.96;100.00;100817.75;5047414;28;20469;-55
2022/10/23 06:58:36;;;;;;;18.08;12.55;;;;;;;11.96;100.00;100828.31;5032137;28;20043;-56
2022/10/23 07:01:04;;;;;;;17.45;12.45;;;;;;;11.69;100.00;100773.06;5047465;28;20065;-55
2022/10/23 07:03:30;;;;;;;21.33;13.32;;;;;;;11.71;100.00;100771.22;5031887;28;20033;-58
2022/10/23 07:05:59;;;;;;;18.60;13.10;;;;;;;12.09;100.00;100833.06;5031931;28;20033;-56
2022/10/23 07:08:24;;;;;;;18.90;12.70;;;;;;;12.13;100.00;100826.75;5046881;28;20069;-53
2022/10/23 07:10:49;;;;;;;16.33;12.82;;;;;;;12.16;100.00;100829.28;5031940;28;20429;-54
2022/10/23 07:13:15;;;;;;;21.40;13.52;;;;;;;12.19;100.00;100815.97;5031960;28;20037;-60
2022/10/23 07:15:40;;;;;;;21.10;13.32;;;;;;;11.90;100.00;100747.66;5031374;28;20037;-55
2022/10/23 07:18:05;;;;;;;15.48;11.60;;;;;;;12.27;100.00;100799.81;5031290;28;20060;-57
2022/10/23 07:20:31;;;;;;;25.55;12.60;;;;;;;12.32;100.00;100803.97;5031768;28;20041;-61
2022/10/23 07:22:57;;;;;;;17.95;12.35;;;;;;;12.36;100.00;100794.16;5030903;28;20388;-57
2022/10/23 07:25:24;;;;;;;18.30;11.55;;;;;;;12.40;100.00;100830.09;5045412;28;20476;-53
2022/10/23 07:27:50;;;;;;;17.20;12.30;;;;;;;12.10;100.00;100750.34;5046929;28;20033;-58
2022/10/23 07:30:16;;;;;;;16.08;11.30;;;;;;;12.51;100.00;100806.75;5032099;28;20036;-54
2022/10/23 07:32:41;;;;;;;14.68;11.10;;;;;;;12.57;100.00;100797.72;5031183;28;20516;-57
2022/10/23 07:35:08;;;;;;;20.17;11.57;;;;;;;12.29;100.00;100745.16;5046675;28;20044;-56
2022/10/23 07:37:33;;;;;;;15.95;11.02;;;;;;;12.66;100.00;100811.41;5046895;28;20109;-55
2022/10/23 07:39:59;;;;;;;20.08;12.05;;;;;;;12.66;100.00;100799.97;5031663;28;20129;-57
2022/10/23 07:42:24;;;;;;;19.88;11.05;;;;;;;12.70;100.00;100793.63;5031737;28;20083;-55
2022/10/23 07:44:49;;;;;;;15.88;10.65;;;;;;;12.38;100.00;100735.09;5031502;28;20268;-57
2022/10/23 07:47:15;;;;;;;18.40;11.50;;;;;;;12.78;100.00;100792.38;5031578;28;20370;-58
2022/10/23 07:49:40;;;;;;;15.77;9.75;;;;;;;12.46;100.00;100718.97;5031709;28;20465;-52
2022/10/23 07:52:05;;;;;;;15.63;10.85;;;;;;;12.88;100.00;100784.94;5031371;28;20033;-54
2022/10/23 07:54:31;;;;;;;12.68;9.75;;;;;;;12.90;100.00;100777.81;5031389;28;20103;-57
2022/10/23 07:56:58;;;;;;;13.50;10.15;;;;;;;12.93;100.00;100783.81;5031866;28;20067;-54
2022/10/23 07:59:23;;;;;;;13.18;10.23;;;;;;;12.94;100.00;100774.97;5031631;28;20034;-52
2022/10/23 08:01:48;;;;;;;10.90;9.60;;;;;;;12.64;100.00;100715.53;5034188;28;20029;-52
2022/10/23 08:04:14;;;;;;;16.60;10.27;;;;;;;12.99;100.00;100767.69;5033600;28;20037;-57
2022/10/23 08:06:39;;;;;;;15.07;10.20;;;;;;;12.98;100.00;100760.72;5035021;28;20033;-55
2022/10/23 08:09:04;;;;;;;13.65;10.32;;;;;;;13.08;100.00;100765.59;5034827;28;20393;-56
2022/10/23 08:11:34;;;;;;;14.75;10.93;;;;;;;13.13;100.00;100771.56;5034586;28;20045;-57
2022/10/23 08:14:03;;;;;;;11.27;9.73;;;;;;;13.15;100.00;100767.06;5034852;28;20120;-53
2022/10/23 08:16:28;;;;;;;12.90;10.30;;;;;;;13.19;100.00;100768.66;5035083;28;20124;-60
2022/10/23 08:18:54;;;;;;;14.85;9.82;;;;;;;13.13;100.00;100753.94;5034045;28;20507;-57
2022/10/23 08:21:19;;;;;;;13.30;9.00;;;;;;;13.00;100.00;100710.44;5047356;28;20140;-57
2022/10/23 08:23:44;;;;;;;13.35;9.57;;;;;;;13.28;100.00;100752.41;5034599;28;20055;-56
2022/10/23 08:26:10;;;;;;;13.77;9.18;;;;;;;13.30;100.00;100754.03;5034752;28;20154;-54
2022/10/23 08:28:35;;;;;;;11.80;8.88;;;;;;;13.31;100.00;100744.34;5020031;28;20099;-54
2022/10/23 08:31:09;;;;;;;10.65;9.07;;;;;;;13.15;100.00;100722.13;5021191;28;20469;-56
2022/10/23 08:33:34;;;;;;;13.20;8.73;;;;;;;13.34;100.00;100752.09;5032668;28;20481;-49
2022/10/23 08:36:00;;;;;;;11.63;9.27;;;;;;;13.27;100.00;100725.09;5033520;28;20103;-55
2022/10/23 08:38:25;;;;;;;11.68;9.00;;;;;;;13.36;100.00;100744.97;5034142;28;20041;-56
2022/10/23 08:40:51;;;;;;;11.68;8.65;;;;;;;13.39;100.00;100724.53;5033392;28;20034;-58
2022/10/23 08:43:34;;;;;;;12.35;8.75;;;;;;;13.04;100.00;100653.88;5034216;28;20029;-57
2022/10/23 08:46:06;;;;;;;12.90;9.48;;;;;;;13.48;100.00;100731.19;5031890;28;20154;-58
2022/10/23 08:48:48;;;;;;;11.13;8.68;;;;;;;13.53;100.00;100724.75;5034126;28;20098;-54
2022/10/23 08:51:34;;;;;;;11.57;8.65;;;;;;;13.27;100.00;100671.38;5034290;28;20060;-58
2022/10/23 08:54:41;;;;;;;14.88;8.77;;;;;;;13.59;100.00;100728.91;5033922;28;20076;-54
2022/10/23 08:57:12;;;;;;;12.73;8.57;;;;;;;13.06;100.00;100608.88;5027496;28;20041;-57
2022/10/23 08:59:44;;;;;;;9.68;8.27;;;;;;;13.72;100.00;100716.81;5032653;28;20056;-57
2022/10/23 09:02:16;;;;;;;11.70;8.23;;;;;;;13.79;100.00;100717.38;5034158;28;20025;-54
2022/10/23 09:04:44;;;;;;;11.43;8.52;;;;;;;13.54;100.00;100664.81;5032648;28;20029;-55
2022/10/23 09:07:37;;;;;;;13.32;7.72;;;;;;;13.95;100.00;100716.56;5033473;28;20205;-57
2022/10/23 09:10:13;;;;;;;9.77;7.82;;;;;;;13.99;100.00;100704.06;5033650;28;20033;-56
2022/10/23 09:12:39;;;;;;;14.05;8.65;;;;;;;13.66;100.00;100643.03;5032056;28;20437;-61
2022/10/23 09:15:28;;;;;;;10.93;8.20;;;;;;;14.02;100.00;100707.41;5032462;28;20042;-55
2022/10/23 09:17:57;;;;;;;9.07;6.97;;;;;;;14.02;100.00;100711.84;5033683;28;20457;-56
2022/10/23 09:20:26;;;;;;;9.23;7.70;;;;;;;14.05;100.00;100711.69;5032104;28;20046;-52
2022/10/23 09:22:55;;;;;;;10.95;7.70;;;;;;;14.10;100.00;100704.38;5032474;28;20033;-61
2022/10/23 09:25:25;;;;;;;13.52;8.50;;;;;;;14.12;100.00;100691.09;5032308;28;20037;-56
2022/10/23 09:27:54;;;;;;;10.82;8.40;;;;;;;14.18;100.00;100691.66;5033601;28;20047;-57
2022/10/23 09:30:37;;;;;;;9.55;8.57;;;;;;;13.93;100.00;100636.41;5033212;28;20119;-55
2022/10/23 09:33:22;;;;;;;10.48;7.30;;;;;;;14.17;100.00;100666.09;5032867;28;20050;-53
2022/10/23 09:35:52;;;;;;;13.02;7.82;;;;;;;14.28;100.00;100687.59;5033326;28;20080;-59
2022/10/23 09:38:29;;;;;;;9.25;7.45;;;;;;;14.23;100.00;100665.81;5033238;28;20415;-54
2022/10/23 09:40:57;;;;;;;10.52;7.60;;;;;;;14.30;100.00;100669.84;5033541;28;20029;-57
2022/10/23 09:43:26;;;;;;;8.73;7.32;;;;;;;13.99;100.00;100617.59;5031926;28;20040;-54
2022/10/23 09:46:00;;;;;;;12.55;8.00;;;;;;;14.00;100.00;100616.66;5033250;28;20066;-58
2022/10/23 09:48:26;;;;;;;10.45;8.13;;;;;;;14.31;100.00;100673.34;5033057;28;20476;-55
2022/10/23 09:51:00;;;;;;;10.93;7.63;;;;;;;14.26;100.00;100659.50;5032850;28;20037;-57
2022/10/23 09:53:37;;;;;;;9.75;7.03;;;;;;;13.82;100.00;100571.75;5033179;28;20040;-57
2022/10/23 09:56:10;;;;;;;12.85;7.95;;;;;;;13.90;100.00;100591.59;5032001;28;20029;-60
2022/10/23 09:58:38;;;;;;;8.70;7.38;;;;;;;14.22;100.00;100650.84;5033010;28;20589;-55
2022/10/23 10:01:04;;;;;;;12.93;7.90;;;;;;;14.22;100.00;100655.28;5032754;28;20468;-53
2022/10/23 10:03:29;;;;;;;11.35;8.20;;;;;;;14.21;100.00;100653.59;5031311;28;20041;-59
2022/10/23 10:05:57;;;;;;;7.95;7.10;;;;;;;14.25;100.00;100648.03;5032866;28;20075;-56
2022/10/23 10:08:45;;;;;;;10.10;6.95;;;;;;;14.28;100.00;100639.94;5032579;28;20473;-55
2022/10/23 10:11:26;;;;;;;11.20;7.07;;;;;;;14.02;100.00;100582.19;5031412;28;20056;-54
2022/10/23 10:13:59;;;;;;;8.73;7.10;;;;;;;14.02;100.00;100580.38;5031497;28;20033;-57
2022/10/23 10:16:43;;;;;;;10.02;6.95;;;;;;;14.05;100.00;100574.94;5031595;28;20034;-56
2022/10/23 10:19:24;;;;;;;10.43;7.28;;;;;;;14.41;100.00;100622.53;5032393;28;20029;-54
2022/10/23 10:22:11;;;;;;;9.98;6.78;;;;;;;14.46;100.00;100625.81;5031024;28;20075;-58
2022/10/23 10:24:41;;;;;;;11.60;7.00;;;;;;;14.53;100.00;100634.31;5031860;28;20053;-57
2022/10/23 10:27:29;;;;;;;7.07;6.30;;;;;;;14.65;100.00;100620.41;5031402;28;20116;-57
2022/10/23 10:30:11;;;;;;;8.98;6.43;;;;;;;14.43;100.00;100549.16;5031176;28;20037;-57
2022/10/23 10:33:16;;;;;;;9.88;7.20;;;;;;;14.81;100.00;100592.16;5030231;28;20142;-57
2022/10/23 10:36:16;;;;;;;8.77;6.82;;;;;;;14.95;100.00;100592.28;5029263;28;20064;-55
2022/10/23 10:38:46;;;;;;;10.88;6.30;;;;;;;15.04;100.00;100582.97;4990628;28;20061;-60
2022/10/23 10:41:17;;;;;;;7.97;6.00;;;;;;;15.16;100.00;100580.50;5024446;28;20135;-56
2022/10/23 10:43:45;;;;;;;;;;;;;;;15.20;100.00;100587.34;5032807;28;20033;-55
2022/10/23 10:46:40;;;;;;;11.45;5.85;;;;;;;14.91;100.00;100515.69;5030943;28;19913;-56
2022/10/23 10:49:26;;;;;;;8.85;5.90;;;;;;;15.28;100.00;100556.88;5030879;28;20064;-57
2022/10/23 10:52:12;;;;;;;8.73;5.38;;;;;;;15.35;100.00;100558.28;5031238;28;20036;-56
2022/10/23 10:55:13;;;;;;;10.48;6.88;;;;;;;15.32;100.00;100530.13;5032021;28;20040;-57
2022/10/23 10:57:42;;;;;;;7.97;5.75;;;;;;;15.48;100.00;100530.97;5031973;28;20025;-57
2022/10/23 11:00:19;;;;;;;8.23;5.55;;;;;;;15.57;100.00;100519.84;5032441;28;20026;-58
2022/10/23 11:02:46;;;;;;;8.25;5.70;;;;;;;15.71;100.00;100524.34;5031860;28;20539;-53
2022/10/23 11:05:18;;;;;;;9.50;6.18;;;;;;;15.80;100.00;100510.53;5032124;28;20108;-53
2022/10/23 11:07:51;;;;;;;8.27;5.40;;;;;;;15.52;100.00;100439.69;5032011;28;20029;-56
2022/10/23 11:10:18;;;;;;;8.35;5.72;;;;;;;16.02;100.00;100510.13;5031734;28;20117;-53
2022/10/23 11:12:45;;;;;;;6.82;4.85;;;;;;;15.89;100.00;100462.22;5032148;28;20033;-53
2022/10/23 11:15:13;;;;;;;9.43;6.15;;;;;;;16.26;100.00;100514.81;5030835;28;20026;-56